AQQ10 IFIS: Internet Flight Information System
logo dgac
Martes 21 de Septiembre del 2021
Buscar por aerodromo o helipuerto
Ingrese nombre de aeródromo, localidad o designador OACI:
METAR del 21-09-2021 a las 09:00 UTC
Para mayor información visite www.meteochile.cl
METAR SCRM 210900Z 01033KT 9999 OVC004 M03/M03 Q0993 NOSIG
Viento: dirección 010 grados, velocidad 33 nudos
Visibilidad: 10 km o más
Nubes: Cubierto a 400 pies sobre el nivel del aeródromo
Temperatura: -3 °C
Rocío: -3 °C
Humedad_relativa: 100%
Presión: 993 hPa
No se esperan cambios significativos en las próximas 2 horas
METAR del 21-09-2021 a las 06:00 UTC
Para mayor información visite www.meteochile.cl
METAR SCRM 210600Z 01025KT 1500 BR OVC005 M03/M03 Q0998 NOSIG
Viento: dirección 010 grados, velocidad 25 nudos
Visibilidad: 1500 metros
Neblina
Nubes: Cubierto a 500 pies sobre el nivel del aeródromo
Temperatura: -3 °C
Rocío: -3 °C
Humedad_relativa: 100%
Presión: 998 hPa
No se esperan cambios significativos en las próximas 2 horas
METAR del 21-09-2021 a las 03:00 UTC
Para mayor información visite www.meteochile.cl
METAR SCRM 210300Z 01020KT 1000 BR OVC004 M03/M03 Q1000 NOSIG
Viento: dirección 010 grados, velocidad 20 nudos
Visibilidad: 1000 metros
Neblina
Nubes: Cubierto a 400 pies sobre el nivel del aeródromo
Temperatura: -3 °C
Rocío: -3 °C
Humedad_relativa: 100%
Presión: 1000 hPa
No se esperan cambios significativos en las próximas 2 horas
METAR del 21-09-2021 a las 00:00 UTC
Para mayor información visite www.meteochile.cl
METAR SCRM 210000Z NIL
METAR del 20-09-2021 a las 23:00 UTC
Para mayor información visite www.meteochile.cl
METAR SCRM 202300Z 33014KT 9999 BKN005 OVC020 M03/M03 Q1000 NOSIG
Viento: dirección 330 grados, velocidad 14 nudos
Visibilidad: 10 km o más
Nubes: Nublado a 500 pies sobre el nivel del aeródromo
Nubes: Cubierto a 2000 pies sobre el nivel del aeródromo
Temperatura: -3 °C
Rocío: -3 °C
Humedad_relativa: 100%
Presión: 1000 hPa
No se esperan cambios significativos en las próximas 2 horas
METAR del 20-09-2021 a las 22:00 UTC
Para mayor información visite www.meteochile.cl
METAR SCRM 202200Z 33013KT 8000 VCFG BKN004 OVC020 M03/M03 Q1000 NOSIG
Viento: dirección 330 grados, velocidad 13 nudos
Visibilidad: 8000 metros
En los alrededores, Niebla
Nubes: Nublado a 400 pies sobre el nivel del aeródromo
Nubes: Cubierto a 2000 pies sobre el nivel del aeródromo
Temperatura: -3 °C
Rocío: -3 °C
Humedad_relativa: 100%
Presión: 1000 hPa
No se esperan cambios significativos en las próximas 2 horas
METAR del 20-09-2021 a las 21:00 UTC
Para mayor información visite www.meteochile.cl
METAR SCRM 202100Z 31009KT 9999 SCT006 BKN025 M02/M03 Q0999 NOSIG
Viento: dirección 310 grados, velocidad 9 nudos
Visibilidad: 10 km o más
Nubes: Nubosidad parcial a 600 pies sobre el nivel del aeródromo
Nubes: Nublado a 2500 pies sobre el nivel del aeródromo
Temperatura: -2 °C
Rocío: -3 °C
Humedad_relativa: 93%
Presión: 999 hPa
No se esperan cambios significativos en las próximas 2 horas
METAR del 20-09-2021 a las 20:00 UTC
Para mayor información visite www.meteochile.cl
METAR SCRM 202000Z 31007KT 9999 FEW010 BKN025 M03/M04 Q0998 NOSIG
Viento: dirección 310 grados, velocidad 7 nudos
Visibilidad: 10 km o más
Nubes: Escasa nubosidad a 1000 pies sobre el nivel del aeródromo
Nubes: Nublado a 2500 pies sobre el nivel del aeródromo
Temperatura: -3 °C
Rocío: -4 °C
Humedad_relativa: 93%
Presión: 998 hPa
No se esperan cambios significativos en las próximas 2 horas
METAR del 20-09-2021 a las 19:00 UTC
Para mayor información visite www.meteochile.cl
METAR SCRM 201900Z 14009KT 9999 FEW030 BKN050 M03/M05 Q0997 NOSIG
Viento: dirección 140 grados, velocidad 9 nudos
Visibilidad: 10 km o más
Nubes: Escasa nubosidad a 3000 pies sobre el nivel del aeródromo
Nubes: Nublado a 5000 pies sobre el nivel del aeródromo
Temperatura: -3 °C
Rocío: -5 °C
Humedad_relativa: 86%
Presión: 997 hPa
No se esperan cambios significativos en las próximas 2 horas
METAR del 20-09-2021 a las 18:00 UTC
Para mayor información visite www.meteochile.cl
METAR SCRM 201800Z 14011KT 9999 FEW030 BKN050 M04/M05 Q0997 NOSIG
Viento: dirección 140 grados, velocidad 11 nudos
Visibilidad: 10 km o más
Nubes: Escasa nubosidad a 3000 pies sobre el nivel del aeródromo
Nubes: Nublado a 5000 pies sobre el nivel del aeródromo
Temperatura: -4 °C
Rocío: -5 °C
Humedad_relativa: 93%
Presión: 997 hPa
No se esperan cambios significativos en las próximas 2 horas